Time;durP1;ratioP1;P1;durP2;ratioP2;P2;SDS_P1;SDS_P2;PMS_P1;PMS_P2;Temp;Humidity;BMP_temperature;BMP_pressure;BME280_temperature;BME280_humidity;BME280_pressure;Samples;Min_cycle;Max_cycle;Signal;HPM_P1;HPM_P2
2023/04/15 00:01:57;;;;;;;1.80;1.00;;;;;;;18.16;56.98;99346.97;5060288;28;20476;-59
2023/04/15 00:04:22;;;;;;;2.27;1.00;;;;;;;18.14;56.95;99338.00;5063647;28;20194;-60
2023/04/15 00:06:52;;;;;;;1.97;0.93;;;;;;;18.15;56.92;99341.66;5051469;28;20458;-60
2023/04/15 00:09:18;;;;;;;2.50;1.10;;;;;;;18.15;56.87;99333.94;5069967;28;20190;-60
2023/04/15 00:11:44;;;;;;;1.93;1.00;;;;;;;18.14;56.76;99332.28;5050797;28;20508;-59
2023/04/15 00:14:10;;;;;;;2.10;1.07;;;;;;;18.13;56.98;99341.25;5050847;28;20434;-60
2023/04/15 00:16:36;;;;;;;2.50;1.07;;;;;;;18.11;56.75;99333.09;5049636;28;20844;-60
2023/04/15 00:19:01;;;;;;;1.70;0.87;;;;;;;18.10;56.97;99337.16;5053322;28;20191;-59
2023/04/15 00:21:27;;;;;;;2.40;1.07;;;;;;;18.10;56.83;99342.03;5068357;28;20198;-60
2023/04/15 00:23:53;;;;;;;2.73;1.00;;;;;;;18.13;56.80;99344.94;5068940;28;20821;-60
2023/04/15 00:26:19;;;;;;;1.80;1.10;;;;;;;18.13;56.77;99342.09;5052713;28;20452;-60
2023/04/15 00:28:45;;;;;;;2.60;0.90;;;;;;;18.10;56.88;99348.59;5048942;28;20170;-60
2023/04/15 00:31:10;;;;;;;5.43;1.50;;;;;;;18.09;56.82;99346.97;5049647;28;21234;-60
2023/04/15 00:33:36;;;;;;;2.50;0.90;;;;;;;18.10;56.77;99348.59;5048858;28;20821;-60
2023/04/15 00:36:02;;;;;;;1.60;0.90;;;;;;;18.11;56.90;99344.50;5049191;28;20650;-59
2023/04/15 00:38:28;;;;;;;3.07;1.30;;;;;;;18.07;56.95;99346.53;5064346;28;20221;-60
2023/04/15 00:40:54;;;;;;;1.87;1.00;;;;;;;18.10;56.87;99336.34;5069567;28;20405;-60
2023/04/15 00:43:19;;;;;;;1.73;0.87;;;;;;;18.08;57.04;99333.06;5057167;28;20269;-59
2023/04/15 00:45:46;;;;;;;2.47;1.13;;;;;;;18.07;57.01;99328.59;5048542;28;20183;-59
2023/04/15 00:48:12;;;;;;;2.80;1.23;;;;;;;18.08;57.18;99327.34;5049514;28;20187;-60
2023/04/15 00:50:37;;;;;;;1.80;0.90;;;;;;;18.07;56.86;99326.53;5048085;28;20460;-59
2023/04/15 00:53:03;;;;;;;1.97;1.07;;;;;;;18.09;56.85;99341.25;5049058;28;20438;-60
2023/04/15 00:55:28;;;;;;;2.80;1.13;;;;;;;18.08;56.84;99333.91;5051883;28;20215;-60
2023/04/15 00:57:55;;;;;;;1.63;1.00;;;;;;;18.08;56.90;99333.06;5049365;28;20703;-60
2023/04/15 01:00:20;;;;;;;1.90;1.00;;;;;;;18.07;56.85;99337.16;5066256;28;20272;-60
2023/04/15 01:02:46;;;;;;;2.67;1.10;;;;;;;18.08;57.19;99335.94;5051386;28;20409;-59
2023/04/15 01:05:11;;;;;;;1.90;1.10;;;;;;;18.07;56.61;99343.66;5072157;28;20190;-59
2023/04/15 01:07:37;;;;;;;2.47;1.10;;;;;;;18.06;56.92;99339.19;5034866;28;20202;-60
2023/04/15 01:10:03;;;;;;;1.83;0.97;;;;;;;18.08;56.77;99339.63;5072569;28;20239;-60
2023/04/15 01:12:28;;;;;;;1.80;1.00;;;;;;;18.06;57.19;99342.03;5089470;28;20185;-59
2023/04/15 01:14:54;;;;;;;2.30;1.10;;;;;;;18.05;56.75;99337.56;5050759;28;20414;-59
2023/04/15 01:17:20;;;;;;;1.87;0.90;;;;;;;18.05;56.87;99336.72;5048988;28;20187;-59
2023/04/15 01:19:46;;;;;;;1.80;1.00;;;;;;;18.07;57.10;99337.97;5068734;28;20481;-60
2023/04/15 01:22:11;;;;;;;1.50;0.80;;;;;;;18.07;57.05;99331.44;5071778;28;20182;-59
2023/04/15 01:24:37;;;;;;;2.50;1.10;;;;;;;18.08;56.72;99333.91;5071333;28;20163;-60
2023/04/15 01:27:03;;;;;;;1.80;1.00;;;;;;;18.04;57.20;99333.06;5089411;28;20182;-60
2023/04/15 01:29:30;;;;;;;2.20;1.00;;;;;;;18.05;56.92;99333.88;5057947;28;20265;-59
2023/04/15 01:31:56;;;;;;;2.13;0.90;;;;;;;18.04;57.08;99329.38;5089587;28;20416;-59
2023/04/15 01:34:21;;;;;;;2.30;1.30;;;;;;;18.04;57.04;99333.06;5093258;28;20404;-60
2023/04/15 01:36:47;;;;;;;2.03;0.90;;;;;;;18.05;56.91;99339.56;5082782;28;20182;-59
2023/04/15 01:39:13;;;;;;;2.60;1.40;;;;;;;18.04;56.98;99335.09;5092623;28;20198;-60
2023/04/15 01:41:39;;;;;;;2.00;1.00;;;;;;;18.05;56.77;99333.88;5088461;28;20314;-60
2023/04/15 01:44:05;;;;;;;1.40;0.70;;;;;;;18.02;56.93;99344.06;5067210;28;20184;-59
2023/04/15 01:46:31;;;;;;;2.00;1.00;;;;;;;18.03;56.99;99342.84;5034076;28;21252;-60
2023/04/15 01:48:56;;;;;;;1.97;1.00;;;;;;;18.02;57.09;99338.34;5059934;28;20432;-60
2023/04/15 01:51:22;;;;;;;2.33;1.33;;;;;;;18.05;57.00;99340.41;5072677;28;20186;-59
2023/04/15 01:53:47;;;;;;;3.13;0.93;;;;;;;18.05;56.87;99334.69;5073344;28;20179;-59
2023/04/15 01:56:13;;;;;;;2.00;0.90;;;;;;;18.02;57.21;99338.34;5081952;28;20183;-60
2023/04/15 01:58:39;;;;;;;1.70;0.97;;;;;;;18.04;56.70;99338.78;5072302;28;20701;-60
2023/04/15 02:01:04;;;;;;;2.43;0.90;;;;;;;18.04;56.73;99333.06;5072373;28;20170;-59
2023/04/15 02:03:30;;;;;;;1.73;0.93;;;;;;;18.05;56.62;99334.69;5075108;28;20440;-60
2023/04/15 02:05:55;;;;;;;2.77;1.10;;;;;;;18.06;56.96;99339.19;5058749;28;20630;-59
2023/04/15 02:08:21;;;;;;;1.73;1.03;;;;;;;18.05;56.99;99340.41;5072436;28;20199;-60
2023/04/15 02:10:46;;;;;;;2.23;1.13;;;;;;;18.06;56.63;99330.63;5072757;28;20167;-60
2023/04/15 02:13:12;;;;;;;3.30;1.00;;;;;;;18.04;56.75;99326.53;5070992;28;20187;-60
2023/04/15 02:15:38;;;;;;;1.90;1.07;;;;;;;18.02;57.21;99328.97;5052881;28;20167;-60
2023/04/15 02:18:03;;;;;;;1.70;1.00;;;;;;;18.00;57.08;99335.06;5057645;28;20296;-60
2023/04/15 02:20:31;;;;;;;2.83;1.00;;;;;;;18.02;56.95;99334.69;5092498;28;20162;-59
2023/04/15 02:22:57;;;;;;;2.17;0.90;;;;;;;18.02;57.32;99332.63;5090995;28;20170;-60
2023/04/15 02:25:22;;;;;;;2.63;1.20;;;;;;;18.02;57.02;99328.97;5083410;28;21139;-59
2023/04/15 02:27:48;;;;;;;1.80;0.87;;;;;;;17.98;56.75;99325.28;5072197;28;20623;-60
2023/04/15 02:30:13;;;;;;;2.17;0.90;;;;;;;18.01;57.03;99328.16;5071883;28;20170;-59
2023/04/15 02:32:39;;;;;;;1.90;0.97;;;;;;;18.00;57.03;99329.38;5072046;28;20167;-59
2023/04/15 02:35:06;;;;;;;1.73;1.00;;;;;;;18.00;56.82;99334.25;5074224;28;20273;-60
2023/04/15 02:37:35;;;;;;;1.90;0.87;;;;;;;17.99;56.94;99333.44;5071935;28;20191;-59
2023/04/15 02:40:00;;;;;;;1.90;0.90;;;;;;;17.99;56.94;99342.00;5076222;28;20985;-59
2023/04/15 02:42:27;;;;;;;1.97;1.00;;;;;;;17.99;57.21;99341.19;5087773;28;20485;-60
2023/04/15 02:44:53;;;;;;;2.60;1.10;;;;;;;17.96;56.83;99339.94;5071200;28;20179;-60
2023/04/15 02:47:19;;;;;;;1.83;0.90;;;;;;;17.98;57.15;99342.41;5070674;28;20421;-60
2023/04/15 02:49:45;;;;;;;2.20;0.93;;;;;;;17.99;56.97;99346.91;5078093;28;20507;-59
2023/04/15 02:52:10;;;;;;;2.43;1.50;;;;;;;17.97;56.67;99341.56;5090863;28;20170;-59
2023/04/15 02:54:36;;;;;;;1.97;1.13;;;;;;;17.96;56.96;99345.66;5088533;28;20175;-60
2023/04/15 02:57:01;;;;;;;2.27;1.13;;;;;;;17.94;56.80;99342.41;5052975;28;20203;-59
2023/04/15 02:59:27;;;;;;;1.93;1.00;;;;;;;17.94;57.49;99342.41;5053341;28;20220;-60
2023/04/15 03:01:52;;;;;;;1.90;1.00;;;;;;;17.93;56.83;99342.78;5078051;28;20673;-60
2023/04/15 03:04:18;;;;;;;2.60;1.23;;;;;;;17.95;57.10;99343.19;5073419;28;20164;-60
2023/04/15 03:06:43;;;;;;;2.23;0.97;;;;;;;17.95;57.05;99343.19;5090610;28;20209;-60
2023/04/15 03:09:09;;;;;;;2.93;1.20;;;;;;;17.93;56.95;99339.94;5072014;28;20222;-60
2023/04/15 03:11:39;;;;;;;2.20;1.07;;;;;;;17.93;57.21;99348.50;5090243;28;20515;-60
2023/04/15 03:14:04;;;;;;;1.40;0.80;;;;;;;17.90;57.46;99341.56;5048019;28;20182;-60
2023/04/15 03:16:30;;;;;;;2.10;1.00;;;;;;;17.91;57.04;99348.91;5050269;28;20418;-60
2023/04/15 03:18:55;;;;;;;2.00;1.00;;;;;;;17.90;57.09;99344.41;5064555;28;20214;-60
2023/04/15 03:21:22;;;;;;;2.03;1.13;;;;;;;17.92;57.45;99332.59;5090121;28;20186;-60
2023/04/15 03:23:48;;;;;;;2.37;1.03;;;;;;;17.88;57.29;99332.59;5086321;28;20585;-60
2023/04/15 03:26:29;;;;;;;1.90;1.03;;;;;;;17.90;57.16;99335.84;5091119;28;20416;-59
2023/04/15 03:28:55;;;;;;;2.17;1.20;;;;;;;17.89;57.01;99337.06;5091165;28;20161;-60
2023/04/15 03:31:20;;;;;;;2.30;1.13;;;;;;;17.86;57.26;99343.56;5056489;28;20905;-59
2023/04/15 03:33:46;;;;;;;1.93;0.90;;;;;;;17.84;57.16;99340.31;5070586;28;20227;-60
2023/04/15 03:36:11;;;;;;;2.27;1.30;;;;;;;17.83;57.49;99335.81;5072469;28;20183;-60
2023/04/15 03:38:37;;;;;;;2.03;1.07;;;;;;;17.84;57.77;99336.63;5070400;28;20203;-60
2023/04/15 03:41:02;;;;;;;2.50;1.17;;;;;;;17.81;57.53;99334.59;5070639;28;20167;-60
2023/04/15 03:43:27;;;;;;;2.40;1.37;;;;;;;17.82;57.37;99334.19;5071724;28;20175;-60
2023/04/15 03:45:53;;;;;;;1.90;1.00;;;;;;;17.82;57.44;99339.91;5070144;28;20194;-59
2023/04/15 03:48:18;;;;;;;5.47;1.13;;;;;;;17.77;57.70;99340.28;5070294;28;20182;-60
2023/04/15 03:50:44;;;;;;;2.00;0.90;;;;;;;17.79;57.41;99342.72;5069383;28;20182;-60
2023/04/15 03:53:10;;;;;;;2.23;1.13;;;;;;;17.80;56.99;99344.38;5069460;28;20175;-60
2023/04/15 03:55:35;;;;;;;2.43;1.17;;;;;;;17.75;57.58;99354.13;5087584;28;20907;-60
2023/04/15 03:58:01;;;;;;;3.20;1.30;;;;;;;17.76;57.60;99352.88;5090445;28;20198;-60
2023/04/15 04:00:26;;;;;;;2.30;1.07;;;;;;;17.77;57.52;99359.44;5061825;28;20277;-60
2023/04/15 04:02:52;;;;;;;2.20;1.17;;;;;;;17.76;57.16;99355.75;5069873;28;20178;-60
2023/04/15 04:05:17;;;;;;;2.17;1.07;;;;;;;17.77;57.47;99356.56;5068543;28;20174;-60
2023/04/15 04:07:43;;;;;;;2.20;1.10;;;;;;;17.77;57.60;99356.56;5086531;28;20190;-60
2023/04/15 04:10:08;;;;;;;1.73;1.00;;;;;;;17.76;57.05;99358.59;5086904;28;20670;-60
2023/04/15 04:12:34;;;;;;;2.27;1.03;;;;;;;17.74;57.29;99358.19;5077204;28;20792;-60
2023/04/15 04:14:59;;;;;;;2.17;1.10;;;;;;;17.72;57.36;99354.94;5046398;28;20658;-60
2023/04/15 04:17:25;;;;;;;2.10;1.17;;;;;;;17.74;57.85;99357.34;5061290;28;20196;-60
2023/04/15 04:19:50;;;;;;;1.97;1.20;;;;;;;17.73;57.56;99356.56;5050633;28;20187;-59
2023/04/15 04:22:16;;;;;;;1.80;0.90;;;;;;;17.73;57.58;99361.44;5059007;28;20185;-60
2023/04/15 04:24:41;;;;;;;1.80;1.00;;;;;;;17.71;57.51;99358.97;5069824;28;20681;-60
2023/04/15 04:27:07;;;;;;;2.00;1.20;;;;;;;17.74;57.19;99357.34;5066218;28;20175;-60
2023/04/15 04:29:32;;;;;;;2.53;0.90;;;;;;;17.72;57.59;99366.34;5049925;28;20163;-59
2023/04/15 04:31:58;;;;;;;1.60;0.80;;;;;;;17.69;57.50;99367.13;5032405;28;20168;-60
2023/04/15 04:34:23;;;;;;;2.93;1.47;;;;;;;17.68;57.44;99368.34;5064614;28;20175;-59
2023/04/15 04:36:48;;;;;;;1.87;1.00;;;;;;;17.68;57.47;99365.50;5069824;28;20171;-59
2023/04/15 04:39:14;;;;;;;1.63;0.90;;;;;;;17.68;57.59;99370.38;5062758;28;20172;-60
2023/04/15 04:41:40;;;;;;;1.80;1.00;;;;;;;17.65;58.04;99363.44;5031710;28;20164;-60
2023/04/15 04:44:05;;;;;;;2.67;1.30;;;;;;;17.68;57.37;99364.66;5049589;28;20159;-60
2023/04/15 04:46:31;;;;;;;1.70;0.90;;;;;;;17.68;57.63;99365.50;5056895;28;20392;-60
2023/04/15 04:48:56;;;;;;;2.30;1.07;;;;;;;17.64;57.51;99361.78;5057460;28;20175;-60
2023/04/15 04:51:22;;;;;;;2.30;1.03;;;;;;;17.65;57.51;99362.63;5049421;28;20198;-60
2023/04/15 04:53:47;;;;;;;1.97;1.07;;;;;;;17.64;57.50;99364.66;5033907;28;20188;-60
2023/04/15 04:56:13;;;;;;;2.30;1.07;;;;;;;17.66;57.32;99362.22;5031769;28;20210;-59
2023/04/15 04:58:38;;;;;;;2.50;1.30;;;;;;;17.67;57.77;99363.88;5051711;28;20199;-60
2023/04/15 05:01:04;;;;;;;3.20;1.53;;;;;;;17.62;57.47;99364.25;5051836;28;20191;-60
2023/04/15 05:03:29;;;;;;;1.40;0.70;;;;;;;17.66;57.25;99367.13;5058609;28;20676;-60
2023/04/15 05:05:55;;;;;;;2.30;1.10;;;;;;;17.62;57.54;99361.38;5085092;28;20177;-59
2023/04/15 05:08:20;;;;;;;2.40;1.20;;;;;;;17.61;57.51;99362.56;5054504;28;20678;-60
2023/04/15 05:10:45;;;;;;;1.80;1.00;;;;;;;17.59;57.36;99365.03;5049510;28;20171;-60
2023/04/15 05:13:11;;;;;;;2.00;1.00;;;;;;;17.60;57.72;99369.50;5017388;28;20186;-60
2023/04/15 05:15:38;;;;;;;2.13;1.10;;;;;;;17.64;57.49;99373.22;5034799;28;20181;-60
2023/04/15 05:18:04;;;;;;;2.43;1.30;;;;;;;17.60;57.07;99372.38;5068799;28;20212;-60
2023/04/15 05:20:29;;;;;;;2.13;1.10;;;;;;;17.60;57.42;99371.56;5050728;28;20967;-61
2023/04/15 05:22:54;;;;;;;2.40;1.10;;;;;;;17.61;57.47;99371.13;5048092;28;20234;-61
2023/04/15 05:25:20;;;;;;;2.40;1.00;;;;;;;17.62;57.42;99377.69;5049656;28;20201;-60
2023/04/15 05:27:45;;;;;;;1.80;1.10;;;;;;;17.59;57.52;99379.28;5028942;28;20237;-60
2023/04/15 05:30:11;;;;;;;1.90;1.10;;;;;;;17.59;57.37;99381.31;5046751;28;20214;-60
2023/04/15 05:32:37;;;;;;;2.30;1.23;;;;;;;17.59;57.53;99375.59;5049140;28;20186;-60
2023/04/15 05:35:02;;;;;;;2.53;1.40;;;;;;;17.58;57.45;99380.50;5054863;28;20409;-60
2023/04/15 05:37:28;;;;;;;2.37;1.13;;;;;;;17.58;57.45;99377.66;5059509;28;20256;-60
2023/04/15 05:39:53;;;;;;;2.23;1.00;;;;;;;17.57;57.46;99375.19;5048235;28;20167;-59
2023/04/15 05:42:19;;;;;;;2.00;0.97;;;;;;;17.56;57.18;99377.22;5048002;28;20167;-59
2023/04/15 05:44:44;;;;;;;2.20;1.10;;;;;;;17.59;57.38;99381.31;5032001;28;20180;-59
2023/04/15 05:47:10;;;;;;;2.20;1.30;;;;;;;17.58;57.17;99380.50;5063766;28;20489;-60
2023/04/15 05:49:35;;;;;;;1.70;1.00;;;;;;;17.58;57.37;99374.81;5068624;28;20175;-59
2023/04/15 05:52:01;;;;;;;2.90;1.40;;;;;;;17.59;57.48;99385.00;5065793;28;20210;-60
2023/04/15 05:54:26;;;;;;;2.13;0.97;;;;;;;17.57;57.31;99386.63;5050589;28;20642;-60
2023/04/15 05:56:52;;;;;;;2.07;1.00;;;;;;;17.57;57.36;99387.44;5050682;28;20627;-60
2023/04/15 05:59:18;;;;;;;2.10;1.30;;;;;;;17.56;57.29;99385.78;5068739;28;20337;-60
2023/04/15 06:01:44;;;;;;;2.77;1.23;;;;;;;17.57;57.37;99389.47;5061613;28;20183;-60
2023/04/15 06:04:10;;;;;;;2.30;1.40;;;;;;;17.58;57.35;99393.94;5065288;28;20539;-59
2023/04/15 06:06:36;;;;;;;2.33;0.93;;;;;;;17.59;57.50;99389.88;5088769;28;20198;-60
2023/04/15 06:09:01;;;;;;;4.97;1.37;;;;;;;17.56;57.29;99394.34;5089149;28;20408;-60
2023/04/15 06:11:27;;;;;;;2.30;1.20;;;;;;;17.56;57.38;99393.53;5088189;28;20619;-60
2023/04/15 06:13:52;;;;;;;2.13;1.23;;;;;;;17.56;57.47;99394.34;5065768;28;20552;-61
2023/04/15 06:16:17;;;;;;;2.20;0.90;;;;;;;17.56;57.65;99397.19;5070876;28;20248;-60
2023/04/15 06:18:43;;;;;;;1.83;1.10;;;;;;;17.56;57.20;99396.41;5073515;28;20241;-60
2023/04/15 06:21:09;;;;;;;2.67;1.20;;;;;;;17.54;57.53;99399.63;5072484;28;20173;-61
2023/04/15 06:23:35;;;;;;;2.00;1.10;;;;;;;17.55;57.52;99406.97;5072114;28;20258;-60
2023/04/15 06:26:01;;;;;;;1.90;0.90;;;;;;;17.54;57.25;99410.22;5071335;28;20194;-59
2023/04/15 06:28:26;;;;;;;3.03;1.40;;;;;;;17.55;57.29;99406.97;5072186;28;20786;-60
2023/04/15 06:30:52;;;;;;;2.33;1.20;;;;;;;17.54;57.74;99402.50;5066056;28;20195;-60
2023/04/15 06:33:17;;;;;;;1.50;0.70;;;;;;;17.55;57.33;99406.19;5059066;28;20257;-60
2023/04/15 06:35:43;;;;;;;2.43;1.33;;;;;;;17.55;57.41;99409.84;5071846;28;20413;-60
2023/04/15 06:38:08;;;;;;;2.30;1.30;;;;;;;17.53;57.33;99403.72;5061997;28;20242;-60
2023/04/15 06:40:34;;;;;;;2.50;1.40;;;;;;;17.53;57.74;99402.88;5051669;28;20176;-60
2023/04/15 06:42:59;;;;;;;1.90;0.90;;;;;;;17.53;57.30;99406.56;5036109;28;20176;-60
2023/04/15 06:45:25;;;;;;;2.40;1.10;;;;;;;17.55;57.29;99411.88;5053290;28;20186;-60
2023/04/15 06:47:51;;;;;;;1.80;1.00;;;;;;;17.55;57.37;99411.88;5053336;28;20170;-60
2023/04/15 06:50:16;;;;;;;1.90;1.00;;;;;;;17.53;57.27;99406.56;5071617;28;20179;-59
2023/04/15 06:52:42;;;;;;;2.57;1.10;;;;;;;17.56;57.17;99402.91;5027836;28;20191;-60
2023/04/15 06:55:07;;;;;;;2.63;1.03;;;;;;;17.54;57.58;99408.19;5050895;28;20180;-60
2023/04/15 06:57:33;;;;;;;2.10;1.00;;;;;;;17.53;57.46;99408.59;5058923;28;20191;-60
2023/04/15 06:59:58;;;;;;;2.03;1.00;;;;;;;17.55;57.17;99409.84;5069294;28;20223;-60
2023/04/15 07:02:23;;;;;;;1.87;1.13;;;;;;;17.53;57.45;99402.88;5057182;28;20186;-60
2023/04/15 07:04:49;;;;;;;2.40;1.00;;;;;;;17.53;57.60;99412.28;5062431;28;20675;-60
2023/04/15 07:07:16;;;;;;;1.70;1.03;;;;;;;17.53;57.52;99409.44;5089589;28;20267;-59
2023/04/15 07:09:41;;;;;;;1.80;1.10;;;;;;;17.54;57.06;99413.91;5090358;28;21073;-60
2023/04/15 07:12:07;;;;;;;1.73;1.00;;;;;;;17.55;57.73;99412.69;5054641;28;20446;-59
2023/04/15 07:14:32;;;;;;;1.90;1.23;;;;;;;17.54;57.46;99408.19;5033338;28;20176;-60
2023/04/15 07:16:58;;;;;;;2.33;1.13;;;;;;;17.53;57.29;99409.44;5043901;28;20199;-60
2023/04/15 07:19:23;;;;;;;2.17;1.13;;;;;;;17.52;57.64;99407.78;5051383;28;20171;-60
2023/04/15 07:21:49;;;;;;;2.30;1.20;;;;;;;17.55;57.33;99406.97;5052113;28;20168;-59
2023/04/15 07:24:17;;;;;;;1.90;1.20;;;;;;;17.53;57.67;99406.56;5050104;28;20152;-59
2023/04/15 07:26:43;;;;;;;2.17;1.40;;;;;;;17.55;57.77;99398.41;5051554;28;20187;-60
2023/04/15 07:29:09;;;;;;;2.20;1.20;;;;;;;17.57;57.09;99406.59;5050845;28;20410;-60
2023/04/15 07:31:35;;;;;;;2.30;1.40;;;;;;;17.55;57.46;99406.19;5050595;28;20414;-59
2023/04/15 07:34:02;;;;;;;2.17;1.20;;;;;;;17.54;57.42;99408.19;5050965;28;20243;-60
2023/04/15 07:36:28;;;;;;;1.83;1.03;;;;;;;17.58;57.53;99408.22;5064936;28;20441;-60
2023/04/15 07:38:54;;;;;;;2.00;1.10;;;;;;;17.54;57.28;99405.34;5051552;28;20522;-60
2023/04/15 07:41:20;;;;;;;2.30;1.13;;;;;;;17.55;57.42;99414.75;5062141;28;20450;-61
2023/04/15 07:43:47;;;;;;;1.70;0.90;;;;;;;17.54;57.80;99411.06;5049824;28;21006;-60
2023/04/15 07:46:12;;;;;;;1.80;1.00;;;;;;;17.57;57.24;99410.28;5038913;28;20456;-59
2023/04/15 07:48:38;;;;;;;3.73;1.17;;;;;;;17.55;57.40;99404.13;5054904;28;21050;-60
2023/04/15 07:51:03;;;;;;;1.97;1.13;;;;;;;17.58;57.24;99406.19;5069255;28;20545;-59
2023/04/15 07:53:29;;;;;;;1.90;1.00;;;;;;;17.54;57.43;99407.38;5068933;28;20189;-60
2023/04/15 07:55:54;;;;;;;2.30;1.13;;;;;;;17.54;57.18;99415.94;5069040;28;20178;-59
2023/04/15 07:58:20;;;;;;;1.60;1.00;;;;;;;17.51;57.27;99411.84;5067667;28;20216;-61
2023/04/15 08:00:45;;;;;;;1.63;0.93;;;;;;;17.53;57.69;99420.84;5063175;28;20193;-60
2023/04/15 08:03:11;;;;;;;2.53;1.10;;;;;;;17.50;57.17;99415.91;5048310;28;20167;-60
2023/04/15 08:05:36;;;;;;;1.80;1.00;;;;;;;17.54;57.31;99410.22;5056242;28;20797;-60
2023/04/15 08:08:02;;;;;;;1.87;0.97;;;;;;;17.57;57.16;99413.13;5088489;28;20536;-60
2023/04/15 08:10:28;;;;;;;2.40;1.10;;;;;;;17.56;56.96;99420.03;5076443;28;20186;-60
2023/04/15 08:12:54;;;;;;;2.10;1.20;;;;;;;17.56;57.15;99414.31;5069011;28;20167;-60
2023/04/15 08:15:20;;;;;;;3.83;1.47;;;;;;;17.52;57.43;99421.22;5050644;28;20421;-60
2023/04/15 08:17:45;;;;;;;1.60;0.90;;;;;;;17.54;57.36;99433.88;5068760;28;20186;-60
2023/04/15 08:20:12;;;;;;;1.80;0.90;;;;;;;17.54;57.25;99433.06;5058319;28;20442;-59
2023/04/15 08:22:38;;;;;;;3.00;1.30;;;;;;;17.55;57.46;99429.81;5058318;28;20156;-60
2023/04/15 08:25:03;;;;;;;2.23;1.13;;;;;;;17.52;57.15;99427.78;5068566;28;20845;-60
2023/04/15 08:27:29;;;;;;;1.60;0.90;;;;;;;17.52;57.34;99442.03;5068532;28;20293;-60
2023/04/15 08:29:54;;;;;;;2.00;1.20;;;;;;;17.52;57.66;99436.31;5049571;28;20198;-60
2023/04/15 08:32:20;;;;;;;1.73;1.00;;;;;;;17.52;57.61;99439.19;5069399;28;20252;-60
2023/04/15 08:34:45;;;;;;;2.17;1.20;;;;;;;17.55;57.47;99446.94;5040374;28;20183;-60
2023/04/15 08:37:11;;;;;;;1.90;1.10;;;;;;;17.49;57.57;99451.38;5049078;28;20172;-59
2023/04/15 08:39:36;;;;;;;1.70;1.00;;;;;;;17.52;57.74;99453.44;5050498;28;20190;-60
2023/04/15 08:42:04;;;;;;;1.70;1.00;;;;;;;17.52;57.73;99450.59;5068616;28;20261;-61
2023/04/15 08:44:32;;;;;;;2.27;1.10;;;;;;;17.50;57.39;99452.22;5068965;28;20171;-60
2023/04/15 08:47:01;;;;;;;2.07;1.10;;;;;;;17.49;57.25;99457.09;5055691;28;20556;-60
2023/04/15 08:49:27;;;;;;;2.30;1.10;;;;;;;17.43;57.41;99455.81;5048694;28;20421;-60
2023/04/15 08:51:52;;;;;;;1.90;1.20;;;;;;;17.43;57.33;99454.97;5033114;28;20429;-60
2023/04/15 08:54:18;;;;;;;4.57;1.60;;;;;;;17.42;55.91;99454.19;5066078;28;20179;-60
2023/04/15 08:56:43;;;;;;;2.90;1.30;;;;;;;17.42;55.78;99454.19;5050737;28;20191;-60
2023/04/15 08:59:10;;;;;;;2.93;1.60;;;;;;;17.45;56.19;99458.28;5054236;28;20253;-60
2023/04/15 09:01:36;;;;;;;3.13;1.37;;;;;;;17.44;55.90;99450.91;5051438;28;20163;-59
2023/04/15 09:04:02;;;;;;;2.67;1.30;;;;;;;17.48;55.81;99457.47;5051007;28;20438;-60
2023/04/15 09:06:27;;;;;;;5.77;1.50;;;;;;;17.49;56.29;99453.41;5068084;28;20445;-60
2023/04/15 09:08:53;;;;;;;4.60;1.50;;;;;;;17.49;56.07;99459.94;5067146;28;20187;-60
2023/04/15 09:11:18;;;;;;;4.93;2.13;;;;;;;17.52;55.89;99456.31;5068682;28;20618;-60
2023/04/15 09:13:45;;;;;;;2.97;1.50;;;;;;;17.49;56.13;99459.94;5032561;28;20182;-61
2023/04/15 09:16:10;;;;;;;1.90;1.00;;;;;;;17.52;55.94;99462.00;5050429;28;20737;-59
2023/04/15 09:18:37;;;;;;;4.50;1.73;;;;;;;17.50;55.91;99460.75;5062035;28;20465;-60
2023/04/15 09:21:10;;;;;;;3.97;1.60;;;;;;;17.53;56.33;99463.66;5068640;28;20218;-60
2023/04/15 09:23:35;;;;;;;4.37;1.77;;;;;;;17.53;55.79;99469.34;5068276;28;20487;-60
2023/04/15 09:26:02;;;;;;;2.67;1.10;;;;;;;17.51;56.23;99468.09;5039446;28;20566;-60
2023/04/15 09:28:27;;;;;;;4.20;1.67;;;;;;;17.53;56.67;99472.22;5068495;28;20230;-59
2023/04/15 09:30:59;;;;;;;2.57;1.20;;;;;;;17.51;56.08;99468.91;5062451;28;20839;-60
2023/04/15 09:33:25;;;;;;;2.37;1.10;;;;;;;17.52;56.32;99464.88;5068319;28;20277;-59
2023/04/15 09:36:02;;;;;;;1.97;0.97;;;;;;;17.52;56.29;99470.56;5049156;28;20417;-60
2023/04/15 09:38:27;;;;;;;3.43;1.63;;;;;;;17.53;56.32;99477.09;5050649;28;20462;-60
2023/04/15 09:40:53;;;;;;;2.03;1.30;;;;;;;17.51;56.47;99466.06;5030234;28;20426;-60
2023/04/15 09:43:19;;;;;;;3.60;1.40;;;;;;;17.50;56.43;99467.28;5048272;28;20179;-60
2023/04/15 09:45:52;;;;;;;2.73;1.40;;;;;;;17.51;56.58;99474.63;5016501;28;20839;-60
2023/04/15 09:48:27;;;;;;;2.97;1.20;;;;;;;17.52;56.11;99472.59;5048628;28;20215;-60
2023/04/15 09:50:53;;;;;;;2.87;1.47;;;;;;;17.47;56.58;99473.78;5044320;28;20508;-60
2023/04/15 09:53:19;;;;;;;3.93;1.27;;;;;;;17.47;56.58;99470.94;5052603;28;20437;-60
2023/04/15 09:55:54;;;;;;;4.13;1.30;;;;;;;17.49;56.92;99479.91;5071755;28;20421;-60
2023/04/15 09:58:20;;;;;;;2.90;1.40;;;;;;;17.49;56.60;99479.91;5063589;28;20464;-60
2023/04/15 10:00:47;;;;;;;2.10;1.00;;;;;;;17.53;56.49;99474.22;5071444;28;20921;-60
2023/04/15 10:03:15;;;;;;;3.83;1.03;;;;;;;17.50;56.46;99489.31;5070499;28;20441;-60
2023/04/15 10:05:40;;;;;;;2.73;1.20;;;;;;;17.49;56.66;99481.94;5066940;28;20478;-59
2023/04/15 10:08:05;;;;;;;2.63;1.13;;;;;;;17.53;56.70;99483.63;5092551;28;20931;-60
2023/04/15 10:10:32;;;;;;;3.40;1.37;;;;;;;17.53;56.85;99488.50;5092538;28;20163;-59
2023/04/15 10:12:57;;;;;;;2.37;1.10;;;;;;;17.53;56.51;99485.63;5066167;28;20183;-60
2023/04/15 10:15:23;;;;;;;2.47;1.30;;;;;;;17.51;56.49;99488.88;5038150;28;20476;-60
2023/04/15 10:17:48;;;;;;;2.87;1.40;;;;;;;17.53;56.81;99489.31;5053743;28;20256;-60
2023/04/15 10:20:13;;;;;;;2.40;1.37;;;;;;;17.51;57.04;99486.03;5050331;28;20191;-61
2023/04/15 10:22:40;;;;;;;7.80;1.60;;;;;;;17.47;56.47;99492.94;5053140;28;20183;-60
2023/04/15 10:25:05;;;;;;;10.23;1.70;;;;;;;17.51;57.12;99490.94;5053451;28;20160;-60
2023/04/15 10:27:32;;;;;;;12.03;3.30;;;;;;;17.51;56.84;99496.66;5053810;28;20495;-60
2023/04/15 10:29:59;;;;;;;9.50;2.07;;;;;;;17.52;56.69;99487.69;5059286;28;20252;-61
2023/04/15 10:32:25;;;;;;;5.50;2.03;;;;;;;17.51;56.79;99488.09;5053193;28;20401;-61
2023/04/15 10:34:51;;;;;;;7.30;2.07;;;;;;;17.55;56.67;99497.50;5049365;28;20456;-61
2023/04/15 10:37:36;;;;;;;6.23;1.83;;;;;;;17.54;56.60;99487.28;5051709;28;20171;-60
2023/04/15 10:40:24;;;;;;;14.03;1.77;;;;;;;17.53;56.96;99495.03;5051746;28;20500;-60
2023/04/15 10:42:50;;;;;;;7.37;1.60;;;;;;;17.55;57.17;99497.50;5037730;28;20905;-60
2023/04/15 10:45:18;;;;;;;5.53;1.80;;;;;;;17.55;56.79;99500.34;5036583;28;20449;-60
2023/04/15 10:47:44;;;;;;;6.30;1.77;;;;;;;17.54;56.98;99507.25;5071615;28;20203;-61
2023/04/15 10:50:09;;;;;;;5.63;1.73;;;;;;;17.55;56.80;99498.31;5049618;28;20448;-60
2023/04/15 10:52:38;;;;;;;8.53;1.73;;;;;;;17.54;57.12;99501.53;5071948;28;20160;-60
2023/04/15 10:55:10;;;;;;;5.00;1.83;;;;;;;17.53;56.97;99502.75;5035687;28;20428;-60
2023/04/15 10:57:39;;;;;;;3.70;2.00;;;;;;;17.56;57.08;99508.50;5071190;28;20433;-61
2023/04/15 11:00:08;;;;;;;6.00;1.50;;;;;;;17.52;56.84;99509.69;5038135;28;20471;-60
2023/04/15 11:02:56;;;;;;;7.07;1.90;;;;;;;17.52;57.02;99516.22;5030903;28;20434;-60
2023/04/15 11:05:22;;;;;;;4.87;2.00;;;;;;;17.50;57.33;99512.94;5053112;28;20421;-60
2023/04/15 11:07:50;;;;;;;10.67;1.97;;;;;;;17.53;56.90;99519.88;5071307;28;20465;-60
2023/04/15 11:10:25;;;;;;;7.10;1.83;;;;;;;17.54;57.15;99519.50;5071207;28;21091;-60
2023/04/15 11:12:56;;;;;;;4.77;1.63;;;;;;;17.55;56.95;99526.84;5050982;28;20453;-61
2023/04/15 11:15:36;;;;;;;4.60;1.70;;;;;;;17.51;57.17;99523.13;5032454;28;20481;-60
2023/04/15 11:18:14;;;;;;;2.67;1.43;;;;;;;17.54;56.72;99524.38;5046768;28;20469;-60
2023/04/15 11:20:40;;;;;;;6.40;1.70;;;;;;;17.52;57.26;99527.66;5050426;28;21338;-60
2023/04/15 11:23:06;;;;;;;11.40;2.00;;;;;;;17.55;57.24;99535.41;5051288;28;20756;-60
2023/04/15 11:25:33;;;;;;;5.87;2.50;;;;;;;17.52;57.66;99527.66;5051030;28;20418;-60
2023/04/15 11:28:00;;;;;;;10.13;1.90;;;;;;;17.53;57.40;99537.84;5042493;28;20185;-61
2023/04/15 11:30:28;;;;;;;6.83;1.33;;;;;;;17.54;57.30;99538.66;5034406;28;20762;-61